sensor_id;sensor_type;location;lat;lon;timestamp;P1;durP1;ratioP1;P2;durP2;ratioP2
20649;SDS011;10484;48.736;9.332;2022-12-20T00:01:11;35.60;;;22.25;;
20649;SDS011;10484;48.736;9.332;2022-12-20T00:03:39;38.70;;;23.45;;
20649;SDS011;10484;48.736;9.332;2022-12-20T00:06:06;42.70;;;23.05;;
20649;SDS011;10484;48.736;9.332;2022-12-20T00:08:32;39.53;;;21.15;;
20649;SDS011;10484;48.736;9.332;2022-12-20T00:11:02;38.30;;;21.25;;
20649;SDS011;10484;48.736;9.332;2022-12-20T00:13:30;38.33;;;21.80;;
20649;SDS011;10484;48.736;9.332;2022-12-20T00:16:09;39.05;;;21.75;;
20649;SDS011;10484;48.736;9.332;2022-12-20T00:18:37;44.20;;;22.15;;
20649;SDS011;10484;48.736;9.332;2022-12-20T00:21:04;46.97;;;22.38;;
20649;SDS011;10484;48.736;9.332;2022-12-20T00:23:31;37.55;;;21.60;;
20649;SDS011;10484;48.736;9.332;2022-12-20T00:26:04;40.15;;;22.60;;
20649;SDS011;10484;48.736;9.332;2022-12-20T00:28:38;41.20;;;22.30;;
20649;SDS011;10484;48.736;9.332;2022-12-20T00:31:04;40.67;;;22.13;;
20649;SDS011;10484;48.736;9.332;2022-12-20T00:33:31;33.72;;;20.77;;
20649;SDS011;10484;48.736;9.332;2022-12-20T00:35:57;33.80;;;20.10;;
20649;SDS011;10484;48.736;9.332;2022-12-20T00:38:23;38.67;;;20.87;;
20649;SDS011;10484;48.736;9.332;2022-12-20T00:40:59;37.17;;;22.27;;
20649;SDS011;10484;48.736;9.332;2022-12-20T00:43:27;44.00;;;22.90;;
20649;SDS011;10484;48.736;9.332;2022-12-20T00:45:53;38.47;;;21.90;;
20649;SDS011;10484;48.736;9.332;2022-12-20T00:48:18;38.70;;;21.10;;
20649;SDS011;10484;48.736;9.332;2022-12-20T00:50:44;40.20;;;21.43;;
20649;SDS011;10484;48.736;9.332;2022-12-20T00:53:10;37.83;;;22.27;;
20649;SDS011;10484;48.736;9.332;2022-12-20T00:55:42;32.67;;;18.10;;
20649;SDS011;10484;48.736;9.332;2022-12-20T00:58:09;34.85;;;19.70;;
20649;SDS011;10484;48.736;9.332;2022-12-20T01:00:36;37.55;;;20.48;;
20649;SDS011;10484;48.736;9.332;2022-12-20T01:03:02;30.45;;;20.65;;
20649;SDS011;10484;48.736;9.332;2022-12-20T01:05:28;37.00;;;18.65;;
20649;SDS011;10484;48.736;9.332;2022-12-20T01:07:54;33.75;;;20.35;;
20649;SDS011;10484;48.736;9.332;2022-12-20T01:10:20;35.50;;;19.47;;
20649;SDS011;10484;48.736;9.332;2022-12-20T01:12:46;39.73;;;20.47;;
20649;SDS011;10484;48.736;9.332;2022-12-20T01:15:11;33.90;;;19.83;;
20649;SDS011;10484;48.736;9.332;2022-12-20T01:17:37;33.07;;;20.90;;
20649;SDS011;10484;48.736;9.332;2022-12-20T01:20:03;39.40;;;19.63;;
20649;SDS011;10484;48.736;9.332;2022-12-20T01:22:29;36.15;;;18.08;;
20649;SDS011;10484;48.736;9.332;2022-12-20T01:24:55;39.10;;;19.47;;
20649;SDS011;10484;48.736;9.332;2022-12-20T01:27:21;32.33;;;18.10;;
20649;SDS011;10484;48.736;9.332;2022-12-20T01:29:46;29.00;;;16.40;;
20649;SDS011;10484;48.736;9.332;2022-12-20T01:32:12;27.93;;;18.10;;
20649;SDS011;10484;48.736;9.332;2022-12-20T01:34:37;33.37;;;15.73;;
20649;SDS011;10484;48.736;9.332;2022-12-20T01:37:03;25.70;;;15.97;;
20649;SDS011;10484;48.736;9.332;2022-12-20T01:39:29;28.87;;;18.40;;
20649;SDS011;10484;48.736;9.332;2022-12-20T01:41:54;28.27;;;15.57;;
20649;SDS011;10484;48.736;9.332;2022-12-20T01:46:46;22.43;;;16.10;;
20649;SDS011;10484;48.736;9.332;2022-12-20T01:49:15;34.75;;;17.58;;
20649;SDS011;10484;48.736;9.332;2022-12-20T01:52:07;33.25;;;18.23;;
20649;SDS011;10484;48.736;9.332;2022-12-20T01:54:35;29.13;;;15.95;;
20649;SDS011;10484;48.736;9.332;2022-12-20T01:57:08;31.90;;;17.75;;
20649;SDS011;10484;48.736;9.332;2022-12-20T01:59:52;27.75;;;16.75;;
20649;SDS011;10484;48.736;9.332;2022-12-20T02:02:19;29.42;;;16.90;;
20649;SDS011;10484;48.736;9.332;2022-12-20T02:04:44;35.67;;;17.50;;
20649;SDS011;10484;48.736;9.332;2022-12-20T02:07:11;27.63;;;15.70;;
20649;SDS011;10484;48.736;9.332;2022-12-20T02:09:42;28.95;;;16.60;;
20649;SDS011;10484;48.736;9.332;2022-12-20T02:28:38;29.70;;;16.30;;
20649;SDS011;10484;48.736;9.332;2022-12-20T02:31:33;31.30;;;15.63;;
20649;SDS011;10484;48.736;9.332;2022-12-20T02:34:03;26.25;;;14.07;;
20649;SDS011;10484;48.736;9.332;2022-12-20T02:36:31;25.48;;;14.13;;
20649;SDS011;10484;48.736;9.332;2022-12-20T02:38:57;30.03;;;16.57;;
20649;SDS011;10484;48.736;9.332;2022-12-20T02:41:28;34.70;;;15.50;;
20649;SDS011;10484;48.736;9.332;2022-12-20T02:44:03;28.73;;;15.80;;
20649;SDS011;10484;48.736;9.332;2022-12-20T02:46:52;26.38;;;16.73;;
20649;SDS011;10484;48.736;9.332;2022-12-20T02:49:19;29.58;;;15.88;;
20649;SDS011;10484;48.736;9.332;2022-12-20T02:51:50;31.75;;;14.70;;
20649;SDS011;10484;48.736;9.332;2022-12-20T02:54:18;32.20;;;15.20;;
20649;SDS011;10484;48.736;9.332;2022-12-20T02:59:44;30.73;;;15.50;;
20649;SDS011;10484;48.736;9.332;2022-12-20T03:02:25;29.60;;;14.85;;
20649;SDS011;10484;48.736;9.332;2022-12-20T03:04:52;25.77;;;15.10;;
20649;SDS011;10484;48.736;9.332;2022-12-20T03:07:19;28.52;;;15.65;;
20649;SDS011;10484;48.736;9.332;2022-12-20T03:09:45;32.78;;;16.15;;
20649;SDS011;10484;48.736;9.332;2022-12-20T03:12:11;24.33;;;13.50;;
20649;SDS011;10484;48.736;9.332;2022-12-20T03:14:38;23.65;;;15.07;;
20649;SDS011;10484;48.736;9.332;2022-12-20T03:17:04;28.33;;;16.13;;
20649;SDS011;10484;48.736;9.332;2022-12-20T03:19:30;30.10;;;16.43;;
20649;SDS011;10484;48.736;9.332;2022-12-20T03:21:56;29.70;;;16.47;;
20649;SDS011;10484;48.736;9.332;2022-12-20T03:24:22;28.25;;;15.32;;
20649;SDS011;10484;48.736;9.332;2022-12-20T03:26:47;26.90;;;15.33;;
20649;SDS011;10484;48.736;9.332;2022-12-20T03:29:13;29.50;;;16.40;;
20649;SDS011;10484;48.736;9.332;2022-12-20T03:31:39;37.17;;;16.53;;
20649;SDS011;10484;48.736;9.332;2022-12-20T03:34:05;29.83;;;16.23;;
20649;SDS011;10484;48.736;9.332;2022-12-20T03:36:31;26.88;;;14.50;;
20649;SDS011;10484;48.736;9.332;2022-12-20T03:38:57;30.70;;;15.03;;
20649;SDS011;10484;48.736;9.332;2022-12-20T03:41:23;35.93;;;16.60;;
20649;SDS011;10484;48.736;9.332;2022-12-20T03:43:49;31.00;;;16.77;;
20649;SDS011;10484;48.736;9.332;2022-12-20T03:46:15;34.37;;;16.73;;
20649;SDS011;10484;48.736;9.332;2022-12-20T03:48:41;25.38;;;15.73;;
20649;SDS011;10484;48.736;9.332;2022-12-20T03:51:08;30.92;;;16.73;;
20649;SDS011;10484;48.736;9.332;2022-12-20T03:53:34;34.07;;;17.70;;
20649;SDS011;10484;48.736;9.332;2022-12-20T03:55:59;28.27;;;17.03;;
20649;SDS011;10484;48.736;9.332;2022-12-20T03:58:25;26.43;;;14.60;;
20649;SDS011;10484;48.736;9.332;2022-12-20T04:00:51;26.73;;;14.80;;
20649;SDS011;10484;48.736;9.332;2022-12-20T04:03:16;27.07;;;15.30;;
20649;SDS011;10484;48.736;9.332;2022-12-20T04:05:42;27.13;;;15.97;;
20649;SDS011;10484;48.736;9.332;2022-12-20T04:08:07;28.90;;;14.60;;
20649;SDS011;10484;48.736;9.332;2022-12-20T04:10:33;28.07;;;15.80;;
20649;SDS011;10484;48.736;9.332;2022-12-20T04:13:21;34.38;;;16.80;;
20649;SDS011;10484;48.736;9.332;2022-12-20T04:15:47;37.73;;;16.10;;
20649;SDS011;10484;48.736;9.332;2022-12-20T04:18:12;32.60;;;18.87;;
20649;SDS011;10484;48.736;9.332;2022-12-20T04:20:38;29.47;;;16.40;;
20649;SDS011;10484;48.736;9.332;2022-12-20T04:23:04;28.67;;;15.67;;
20649;SDS011;10484;48.736;9.332;2022-12-20T04:25:29;26.07;;;15.53;;
20649;SDS011;10484;48.736;9.332;2022-12-20T04:27:55;29.83;;;15.40;;
20649;SDS011;10484;48.736;9.332;2022-12-20T04:30:21;34.47;;;15.70;;
20649;SDS011;10484;48.736;9.332;2022-12-20T04:32:46;26.63;;;15.33;;
20649;SDS011;10484;48.736;9.332;2022-12-20T04:35:12;34.67;;;16.83;;
20649;SDS011;10484;48.736;9.332;2022-12-20T04:37:37;34.73;;;17.97;;
20649;SDS011;10484;48.736;9.332;2022-12-20T04:40:03;30.87;;;17.50;;
20649;SDS011;10484;48.736;9.332;2022-12-20T04:42:29;25.80;;;15.48;;
20649;SDS011;10484;48.736;9.332;2022-12-20T04:44:55;34.97;;;16.43;;
20649;SDS011;10484;48.736;9.332;2022-12-20T04:47:21;33.97;;;16.07;;
20649;SDS011;10484;48.736;9.332;2022-12-20T04:49:46;36.03;;;17.10;;
20649;SDS011;10484;48.736;9.332;2022-12-20T04:52:12;31.87;;;16.17;;
20649;SDS011;10484;48.736;9.332;2022-12-20T04:54:56;42.97;;;17.58;;
20649;SDS011;10484;48.736;9.332;2022-12-20T04:57:22;40.33;;;17.63;;
20649;SDS011;10484;48.736;9.332;2022-12-20T04:59:47;28.30;;;15.30;;
20649;SDS011;10484;48.736;9.332;2022-12-20T05:02:13;30.37;;;13.43;;
20649;SDS011;10484;48.736;9.332;2022-12-20T05:04:38;30.50;;;17.00;;
20649;SDS011;10484;48.736;9.332;2022-12-20T05:07:04;47.90;;;19.00;;
20649;SDS011;10484;48.736;9.332;2022-12-20T05:09:30;38.77;;;17.90;;
20649;SDS011;10484;48.736;9.332;2022-12-20T05:11:55;44.77;;;19.50;;
20649;SDS011;10484;48.736;9.332;2022-12-20T05:14:21;39.80;;;17.73;;
20649;SDS011;10484;48.736;9.332;2022-12-20T05:16:46;34.77;;;19.23;;
20649;SDS011;10484;48.736;9.332;2022-12-20T05:19:12;44.33;;;22.20;;
20649;SDS011;10484;48.736;9.332;2022-12-20T05:21:37;46.37;;;20.47;;
20649;SDS011;10484;48.736;9.332;2022-12-20T05:24:22;51.70;;;20.75;;
20649;SDS011;10484;48.736;9.332;2022-12-20T05:27:06;49.55;;;20.33;;
20649;SDS011;10484;48.736;9.332;2022-12-20T05:29:31;41.43;;;21.07;;
20649;SDS011;10484;48.736;9.332;2022-12-20T05:31:57;50.87;;;22.57;;
20649;SDS011;10484;48.736;9.332;2022-12-20T05:34:23;43.10;;;20.47;;
20649;SDS011;10484;48.736;9.332;2022-12-20T05:36:48;37.63;;;18.13;;
20649;SDS011;10484;48.736;9.332;2022-12-20T05:39:14;37.67;;;17.73;;
20649;SDS011;10484;48.736;9.332;2022-12-20T05:41:40;43.20;;;19.57;;
20649;SDS011;10484;48.736;9.332;2022-12-20T05:44:06;39.83;;;19.87;;
20649;SDS011;10484;48.736;9.332;2022-12-20T05:46:32;45.53;;;18.85;;
20649;SDS011;10484;48.736;9.332;2022-12-20T05:48:57;40.87;;;19.90;;
20649;SDS011;10484;48.736;9.332;2022-12-20T05:51:23;31.20;;;16.17;;
20649;SDS011;10484;48.736;9.332;2022-12-20T05:53:49;36.27;;;17.90;;
20649;SDS011;10484;48.736;9.332;2022-12-20T05:56:14;40.80;;;17.67;;
20649;SDS011;10484;48.736;9.332;2022-12-20T05:58:40;40.13;;;17.10;;
20649;SDS011;10484;48.736;9.332;2022-12-20T06:01:06;32.03;;;17.40;;
20649;SDS011;10484;48.736;9.332;2022-12-20T06:03:34;41.63;;;19.23;;
20649;SDS011;10484;48.736;9.332;2022-12-20T06:06:00;42.50;;;18.88;;
20649;SDS011;10484;48.736;9.332;2022-12-20T06:08:26;42.03;;;18.83;;
20649;SDS011;10484;48.736;9.332;2022-12-20T06:10:51;30.53;;;16.50;;
20649;SDS011;10484;48.736;9.332;2022-12-20T06:13:17;38.13;;;18.73;;
20649;SDS011;10484;48.736;9.332;2022-12-20T06:15:43;43.17;;;19.97;;
20649;SDS011;10484;48.736;9.332;2022-12-20T06:18:09;38.47;;;19.43;;
20649;SDS011;10484;48.736;9.332;2022-12-20T06:20:35;38.60;;;19.00;;
20649;SDS011;10484;48.736;9.332;2022-12-20T06:23:01;42.57;;;19.30;;
20649;SDS011;10484;48.736;9.332;2022-12-20T06:25:27;36.00;;;18.23;;
20649;SDS011;10484;48.736;9.332;2022-12-20T06:27:53;39.88;;;17.40;;
20649;SDS011;10484;48.736;9.332;2022-12-20T06:30:19;42.25;;;19.67;;
20649;SDS011;10484;48.736;9.332;2022-12-20T06:32:45;35.65;;;18.40;;
20649;SDS011;10484;48.736;9.332;2022-12-20T06:35:11;42.20;;;19.67;;
20649;SDS011;10484;48.736;9.332;2022-12-20T06:37:38;39.38;;;18.65;;
20649;SDS011;10484;48.736;9.332;2022-12-20T06:40:04;34.58;;;17.05;;
20649;SDS011;10484;48.736;9.332;2022-12-20T06:42:32;39.00;;;19.70;;
20649;SDS011;10484;48.736;9.332;2022-12-20T06:44:57;44.67;;;20.23;;
20649;SDS011;10484;48.736;9.332;2022-12-20T06:47:23;33.77;;;18.60;;
20649;SDS011;10484;48.736;9.332;2022-12-20T06:49:49;47.63;;;21.17;;
20649;SDS011;10484;48.736;9.332;2022-12-20T06:52:14;42.27;;;23.00;;
20649;SDS011;10484;48.736;9.332;2022-12-20T06:54:40;42.27;;;21.67;;
20649;SDS011;10484;48.736;9.332;2022-12-20T06:57:05;44.03;;;20.70;;
20649;SDS011;10484;48.736;9.332;2022-12-20T06:59:31;46.77;;;21.40;;
20649;SDS011;10484;48.736;9.332;2022-12-20T07:01:57;44.20;;;22.07;;
20649;SDS011;10484;48.736;9.332;2022-12-20T07:04:22;49.60;;;20.93;;
20649;SDS011;10484;48.736;9.332;2022-12-20T07:06:48;50.27;;;22.40;;
20649;SDS011;10484;48.736;9.332;2022-12-20T07:09:14;41.57;;;18.70;;
20649;SDS011;10484;48.736;9.332;2022-12-20T07:11:40;44.53;;;21.85;;
20649;SDS011;10484;48.736;9.332;2022-12-20T07:14:07;41.65;;;19.67;;
20649;SDS011;10484;48.736;9.332;2022-12-20T07:16:33;43.92;;;21.70;;
20649;SDS011;10484;48.736;9.332;2022-12-20T07:18:59;40.13;;;20.50;;
20649;SDS011;10484;48.736;9.332;2022-12-20T07:21:25;56.97;;;21.77;;
20649;SDS011;10484;48.736;9.332;2022-12-20T07:23:51;40.83;;;19.73;;
20649;SDS011;10484;48.736;9.332;2022-12-20T07:26:18;43.28;;;20.67;;
20649;SDS011;10484;48.736;9.332;2022-12-20T07:28:44;42.57;;;19.57;;
20649;SDS011;10484;48.736;9.332;2022-12-20T07:31:10;51.63;;;23.02;;
20649;SDS011;10484;48.736;9.332;2022-12-20T07:33:36;40.93;;;18.90;;
20649;SDS011;10484;48.736;9.332;2022-12-20T07:36:06;37.30;;;17.13;;
20649;SDS011;10484;48.736;9.332;2022-12-20T07:38:35;47.67;;;20.55;;
20649;SDS011;10484;48.736;9.332;2022-12-20T07:43:35;48.90;;;21.15;;
20649;SDS011;10484;48.736;9.332;2022-12-20T07:46:02;46.03;;;19.27;;
20649;SDS011;10484;48.736;9.332;2022-12-20T07:48:29;40.15;;;19.10;;
20649;SDS011;10484;48.736;9.332;2022-12-20T07:50:56;46.67;;;20.10;;
20649;SDS011;10484;48.736;9.332;2022-12-20T07:53:25;33.08;;;18.95;;
20649;SDS011;10484;48.736;9.332;2022-12-20T07:55:53;40.35;;;18.30;;
20649;SDS011;10484;48.736;9.332;2022-12-20T07:58:20;39.28;;;19.35;;
20649;SDS011;10484;48.736;9.332;2022-12-20T08:00:46;38.72;;;18.02;;
20649;SDS011;10484;48.736;9.332;2022-12-20T08:03:32;38.67;;;18.67;;
20649;SDS011;10484;48.736;9.332;2022-12-20T08:06:02;41.47;;;19.63;;
20649;SDS011;10484;48.736;9.332;2022-12-20T08:08:31;38.33;;;19.65;;
20649;SDS011;10484;48.736;9.332;2022-12-20T08:10:58;39.22;;;18.55;;
20649;SDS011;10484;48.736;9.332;2022-12-20T08:13:25;44.60;;;19.67;;
20649;SDS011;10484;48.736;9.332;2022-12-20T08:15:51;42.13;;;20.17;;
20649;SDS011;10484;48.736;9.332;2022-12-20T08:18:17;43.97;;;19.87;;
20649;SDS011;10484;48.736;9.332;2022-12-20T08:20:42;42.40;;;21.03;;
20649;SDS011;10484;48.736;9.332;2022-12-20T08:23:08;51.20;;;22.10;;
20649;SDS011;10484;48.736;9.332;2022-12-20T08:25:34;46.10;;;18.30;;
20649;SDS011;10484;48.736;9.332;2022-12-20T08:28:00;54.00;;;18.88;;
20649;SDS011;10484;48.736;9.332;2022-12-20T08:30:26;41.85;;;18.15;;
20649;SDS011;10484;48.736;9.332;2022-12-20T08:32:53;40.50;;;20.85;;
20649;SDS011;10484;48.736;9.332;2022-12-20T08:35:19;45.17;;;20.58;;
20649;SDS011;10484;48.736;9.332;2022-12-20T08:37:46;47.72;;;19.88;;
20649;SDS011;10484;48.736;9.332;2022-12-20T08:40:12;42.78;;;19.60;;
20649;SDS011;10484;48.736;9.332;2022-12-20T08:42:38;49.90;;;21.73;;
20649;SDS011;10484;48.736;9.332;2022-12-20T08:45:04;49.47;;;21.40;;
20649;SDS011;10484;48.736;9.332;2022-12-20T08:47:30;53.00;;;21.90;;
20649;SDS011;10484;48.736;9.332;2022-12-20T08:49:56;55.07;;;22.30;;
20649;SDS011;10484;48.736;9.332;2022-12-20T08:52:21;47.50;;;22.40;;
20649;SDS011;10484;48.736;9.332;2022-12-20T08:54:47;38.33;;;19.83;;
20649;SDS011;10484;48.736;9.332;2022-12-20T08:57:13;51.53;;;21.80;;
20649;SDS011;10484;48.736;9.332;2022-12-20T08:59:38;52.00;;;24.63;;
20649;SDS011;10484;48.736;9.332;2022-12-20T09:02:04;60.20;;;23.57;;
20649;SDS011;10484;48.736;9.332;2022-12-20T09:04:30;48.55;;;21.55;;
20649;SDS011;10484;48.736;9.332;2022-12-20T09:06:56;54.33;;;22.80;;
20649;SDS011;10484;48.736;9.332;2022-12-20T09:09:22;40.73;;;21.30;;
20649;SDS011;10484;48.736;9.332;2022-12-20T09:11:47;53.30;;;22.40;;
20649;SDS011;10484;48.736;9.332;2022-12-20T09:14:13;41.47;;;20.47;;
20649;SDS011;10484;48.736;9.332;2022-12-20T09:16:38;39.60;;;20.70;;
20649;SDS011;10484;48.736;9.332;2022-12-20T09:19:04;46.23;;;20.17;;
20649;SDS011;10484;48.736;9.332;2022-12-20T09:21:30;38.08;;;18.35;;
20649;SDS011;10484;48.736;9.332;2022-12-20T09:23:57;44.70;;;19.95;;
20649;SDS011;10484;48.736;9.332;2022-12-20T09:26:22;50.20;;;23.20;;
20649;SDS011;10484;48.736;9.332;2022-12-20T09:28:49;48.65;;;21.65;;
20649;SDS011;10484;48.736;9.332;2022-12-20T09:31:16;56.42;;;22.52;;
20649;SDS011;10484;48.736;9.332;2022-12-20T09:33:44;49.05;;;26.35;;
20649;SDS011;10484;48.736;9.332;2022-12-20T09:36:10;42.95;;;22.63;;
20649;SDS011;10484;48.736;9.332;2022-12-20T09:38:37;49.30;;;24.45;;
20649;SDS011;10484;48.736;9.332;2022-12-20T09:41:03;52.57;;;24.73;;
20649;SDS011;10484;48.736;9.332;2022-12-20T09:43:31;48.60;;;22.33;;
20649;SDS011;10484;48.736;9.332;2022-12-20T09:45:58;46.28;;;23.13;;
20649;SDS011;10484;48.736;9.332;2022-12-20T09:48:32;40.10;;;20.30;;
20649;SDS011;10484;48.736;9.332;2022-12-20T09:51:05;43.47;;;20.80;;
20649;SDS011;10484;48.736;9.332;2022-12-20T09:56:12;43.63;;;22.25;;
20649;SDS011;10484;48.736;9.332;2022-12-20T09:59:00;45.47;;;22.75;;
20649;SDS011;10484;48.736;9.332;2022-12-20T10:01:28;47.05;;;23.33;;
20649;SDS011;10484;48.736;9.332;2022-12-20T10:03:57;47.15;;;21.17;;
20649;SDS011;10484;48.736;9.332;2022-12-20T10:06:42;48.88;;;24.38;;
20649;SDS011;10484;48.736;9.332;2022-12-20T10:16:57;45.58;;;25.95;;
20649;SDS011;10484;48.736;9.332;2022-12-20T10:22:16;41.10;;;21.73;;
20649;SDS011;10484;48.736;9.332;2022-12-20T10:25:01;41.90;;;19.80;;
20649;SDS011;10484;48.736;9.332;2022-12-20T10:27:47;34.85;;;19.58;;
20649;SDS011;10484;48.736;9.332;2022-12-20T10:30:16;36.35;;;22.17;;
20649;SDS011;10484;48.736;9.332;2022-12-20T10:32:44;39.17;;;20.92;;
20649;SDS011;10484;48.736;9.332;2022-12-20T10:35:36;47.72;;;20.60;;
20649;SDS011;10484;48.736;9.332;2022-12-20T10:40:33;35.28;;;19.88;;
20649;SDS011;10484;48.736;9.332;2022-12-20T10:43:04;34.67;;;18.55;;
20649;SDS011;10484;48.736;9.332;2022-12-20T10:45:34;33.50;;;18.50;;
20649;SDS011;10484;48.736;9.332;2022-12-20T10:48:06;34.83;;;21.05;;
20649;SDS011;10484;48.736;9.332;2022-12-20T10:53:25;35.97;;;20.15;;
20649;SDS011;10484;48.736;9.332;2022-12-20T10:55:52;40.58;;;20.45;;
20649;SDS011;10484;48.736;9.332;2022-12-20T11:01:02;36.08;;;20.10;;
20649;SDS011;10484;48.736;9.332;2022-12-20T11:03:28;36.58;;;19.15;;
20649;SDS011;10484;48.736;9.332;2022-12-20T11:05:59;38.97;;;19.90;;
20649;SDS011;10484;48.736;9.332;2022-12-20T11:08:27;40.10;;;19.67;;
20649;SDS011;10484;48.736;9.332;2022-12-20T11:13:50;41.45;;;20.60;;
20649;SDS011;10484;48.736;9.332;2022-12-20T11:16:23;43.83;;;21.40;;
20649;SDS011;10484;48.736;9.332;2022-12-20T11:21:36;41.47;;;21.05;;
20649;SDS011;10484;48.736;9.332;2022-12-20T11:26:59;50.92;;;23.75;;
20649;SDS011;10484;48.736;9.332;2022-12-20T11:32:50;43.72;;;20.85;;
20649;SDS011;10484;48.736;9.332;2022-12-20T11:35:24;38.45;;;19.90;;
20649;SDS011;10484;48.736;9.332;2022-12-20T11:40:50;49.15;;;21.23;;
20649;SDS011;10484;48.736;9.332;2022-12-20T11:46:03;46.22;;;21.90;;
20649;SDS011;10484;48.736;9.332;2022-12-20T11:48:54;50.03;;;24.35;;
20649;SDS011;10484;48.736;9.332;2022-12-20T11:56:41;47.85;;;23.35;;
20649;SDS011;10484;48.736;9.332;2022-12-20T11:59:16;50.38;;;26.95;;
20649;SDS011;10484;48.736;9.332;2022-12-20T12:01:51;42.90;;;22.60;;
20649;SDS011;10484;48.736;9.332;2022-12-20T12:04:31;51.22;;;28.88;;
20649;SDS011;10484;48.736;9.332;2022-12-20T12:07:07;47.90;;;26.65;;
20649;SDS011;10484;48.736;9.332;2022-12-20T12:12:31;56.42;;;31.38;;
20649;SDS011;10484;48.736;9.332;2022-12-20T12:23:09;54.00;;;28.60;;
20649;SDS011;10484;48.736;9.332;2022-12-20T12:25:37;58.63;;;29.08;;
20649;SDS011;10484;48.736;9.332;2022-12-20T12:28:02;57.10;;;31.50;;
20649;SDS011;10484;48.736;9.332;2022-12-20T12:30:31;65.93;;;32.42;;
20649;SDS011;10484;48.736;9.332;2022-12-20T12:33:25;64.93;;;32.25;;
20649;SDS011;10484;48.736;9.332;2022-12-20T12:47:24;54.65;;;30.27;;
20649;SDS011;10484;48.736;9.332;2022-12-20T12:50:02;54.08;;;30.65;;
20649;SDS011;10484;48.736;9.332;2022-12-20T12:52:39;55.40;;;28.02;;
20649;SDS011;10484;48.736;9.332;2022-12-20T13:00:52;51.65;;;26.92;;
20649;SDS011;10484;48.736;9.332;2022-12-20T13:03:38;54.47;;;28.92;;
20649;SDS011;10484;48.736;9.332;2022-12-20T13:16:36;55.90;;;30.77;;
20649;SDS011;10484;48.736;9.332;2022-12-20T13:19:10;63.80;;;30.33;;
20649;SDS011;10484;48.736;9.332;2022-12-20T13:21:46;51.50;;;28.92;;
20649;SDS011;10484;48.736;9.332;2022-12-20T13:29:50;51.87;;;29.47;;
20649;SDS011;10484;48.736;9.332;2022-12-20T13:32:58;56.97;;;29.45;;
20649;SDS011;10484;48.736;9.332;2022-12-20T13:35:43;64.65;;;28.20;;
20649;SDS011;10484;48.736;9.332;2022-12-20T13:41:30;46.47;;;28.33;;
20649;SDS011;10484;48.736;9.332;2022-12-20T13:44:02;58.97;;;26.38;;
20649;SDS011;10484;48.736;9.332;2022-12-20T13:46:45;52.67;;;29.40;;
20649;SDS011;10484;48.736;9.332;2022-12-20T13:49:25;50.20;;;25.85;;
20649;SDS011;10484;48.736;9.332;2022-12-20T13:54:38;59.10;;;28.30;;
20649;SDS011;10484;48.736;9.332;2022-12-20T13:57:06;52.72;;;26.90;;
20649;SDS011;10484;48.736;9.332;2022-12-20T13:59:32;45.35;;;26.80;;
20649;SDS011;10484;48.736;9.332;2022-12-20T14:01:58;53.03;;;27.48;;
20649;SDS011;10484;48.736;9.332;2022-12-20T14:04:41;56.13;;;27.33;;
20649;SDS011;10484;48.736;9.332;2022-12-20T14:07:11;54.95;;;28.27;;
20649;SDS011;10484;48.736;9.332;2022-12-20T14:09:42;58.63;;;28.05;;
20649;SDS011;10484;48.736;9.332;2022-12-20T14:12:14;55.15;;;27.02;;
20649;SDS011;10484;48.736;9.332;2022-12-20T14:14:45;50.70;;;27.13;;
20649;SDS011;10484;48.736;9.332;2022-12-20T14:20:05;47.63;;;27.02;;
20649;SDS011;10484;48.736;9.332;2022-12-20T14:22:40;57.08;;;28.77;;
20649;SDS011;10484;48.736;9.332;2022-12-20T14:25:28;50.45;;;27.10;;
20649;SDS011;10484;48.736;9.332;2022-12-20T14:27:57;52.33;;;28.00;;
20649;SDS011;10484;48.736;9.332;2022-12-20T14:30:27;57.42;;;28.48;;
20649;SDS011;10484;48.736;9.332;2022-12-20T14:32:54;63.08;;;29.40;;
20649;SDS011;10484;48.736;9.332;2022-12-20T14:35:20;52.80;;;28.17;;
20649;SDS011;10484;48.736;9.332;2022-12-20T14:37:53;48.37;;;26.60;;
20649;SDS011;10484;48.736;9.332;2022-12-20T14:40:21;52.92;;;28.83;;
20649;SDS011;10484;48.736;9.332;2022-12-20T14:42:46;46.73;;;27.53;;
20649;SDS011;10484;48.736;9.332;2022-12-20T14:47:38;48.93;;;26.60;;
20649;SDS011;10484;48.736;9.332;2022-12-20T14:50:18;54.03;;;28.38;;
20649;SDS011;10484;48.736;9.332;2022-12-20T14:52:48;55.90;;;28.55;;
20649;SDS011;10484;48.736;9.332;2022-12-20T14:55:15;51.63;;;26.83;;
20649;SDS011;10484;48.736;9.332;2022-12-20T15:00:22;54.17;;;26.67;;
20649;SDS011;10484;48.736;9.332;2022-12-20T15:10:53;46.15;;;28.20;;
20649;SDS011;10484;48.736;9.332;2022-12-20T15:13:28;55.40;;;27.35;;
20649;SDS011;10484;48.736;9.332;2022-12-20T15:16:02;53.65;;;27.08;;
20649;SDS011;10484;48.736;9.332;2022-12-20T15:18:49;52.70;;;27.70;;
20649;SDS011;10484;48.736;9.332;2022-12-20T15:21:17;55.35;;;29.23;;
20649;SDS011;10484;48.736;9.332;2022-12-20T15:24:00;52.67;;;27.13;;
20649;SDS011;10484;48.736;9.332;2022-12-20T15:26:31;48.92;;;27.83;;
20649;SDS011;10484;48.736;9.332;2022-12-20T15:28:57;55.20;;;30.10;;
20649;SDS011;10484;48.736;9.332;2022-12-20T15:31:23;56.57;;;26.57;;
20649;SDS011;10484;48.736;9.332;2022-12-20T15:33:51;53.08;;;26.77;;
20649;SDS011;10484;48.736;9.332;2022-12-20T15:36:23;60.55;;;26.15;;
20649;SDS011;10484;48.736;9.332;2022-12-20T15:38:56;56.33;;;27.85;;
20649;SDS011;10484;48.736;9.332;2022-12-20T15:41:23;48.83;;;25.45;;
20649;SDS011;10484;48.736;9.332;2022-12-20T15:43:51;53.38;;;26.20;;
20649;SDS011;10484;48.736;9.332;2022-12-20T15:46:19;48.92;;;28.17;;
20649;SDS011;10484;48.736;9.332;2022-12-20T15:48:45;49.60;;;26.93;;
20649;SDS011;10484;48.736;9.332;2022-12-20T15:51:20;58.20;;;30.33;;
20649;SDS011;10484;48.736;9.332;2022-12-20T15:53:52;47.75;;;26.77;;
20649;SDS011;10484;48.736;9.332;2022-12-20T15:56:19;54.78;;;27.00;;
20649;SDS011;10484;48.736;9.332;2022-12-20T15:58:46;60.42;;;28.38;;
20649;SDS011;10484;48.736;9.332;2022-12-20T16:01:15;45.95;;;26.80;;
20649;SDS011;10484;48.736;9.332;2022-12-20T16:03:45;60.63;;;28.63;;
20649;SDS011;10484;48.736;9.332;2022-12-20T16:06:10;55.57;;;25.30;;
20649;SDS011;10484;48.736;9.332;2022-12-20T16:08:39;55.05;;;27.15;;
20649;SDS011;10484;48.736;9.332;2022-12-20T16:11:06;47.35;;;27.58;;
20649;SDS011;10484;48.736;9.332;2022-12-20T16:13:41;55.80;;;27.58;;
20649;SDS011;10484;48.736;9.332;2022-12-20T16:16:11;54.00;;;27.73;;
20649;SDS011;10484;48.736;9.332;2022-12-20T16:18:45;50.25;;;27.40;;
20649;SDS011;10484;48.736;9.332;2022-12-20T16:21:15;60.70;;;30.17;;
20649;SDS011;10484;48.736;9.332;2022-12-20T16:23:42;55.08;;;27.60;;
20649;SDS011;10484;48.736;9.332;2022-12-20T16:26:15;61.10;;;27.30;;
20649;SDS011;10484;48.736;9.332;2022-12-20T16:28:43;56.65;;;30.60;;
20649;SDS011;10484;48.736;9.332;2022-12-20T16:31:11;65.55;;;30.83;;
20649;SDS011;10484;48.736;9.332;2022-12-20T16:33:49;48.03;;;29.25;;
20649;SDS011;10484;48.736;9.332;2022-12-20T16:36:16;61.95;;;31.27;;
20649;SDS011;10484;48.736;9.332;2022-12-20T16:38:41;44.07;;;25.43;;
20649;SDS011;10484;48.736;9.332;2022-12-20T16:41:17;66.00;;;30.50;;
20649;SDS011;10484;48.736;9.332;2022-12-20T16:43:44;49.40;;;26.58;;
20649;SDS011;10484;48.736;9.332;2022-12-20T16:46:11;56.78;;;30.13;;